createdAt,value
2023-09-26T00:00:25.188Z,7.92
2023-09-26T00:01:27.670Z,7.90
2023-09-26T00:02:29.391Z,7.92
2023-09-26T00:03:30.972Z,7.92
2023-09-26T00:04:33.332Z,7.94
2023-09-26T00:05:35.001Z,7.94
2023-09-26T00:06:36.555Z,7.95
2023-09-26T00:07:38.340Z,7.91
2023-09-26T00:08:39.973Z,7.94
2023-09-26T00:09:41.564Z,7.89
2023-09-26T00:10:43.250Z,7.88
2023-09-26T00:11:47.191Z,7.87
2023-09-26T00:12:48.980Z,7.87
2023-09-26T00:13:51.594Z,7.87
2023-09-26T00:14:53.459Z,7.88
2023-09-26T00:15:57.346Z,7.89
2023-09-26T00:16:59.408Z,7.88
2023-09-26T00:18:03.598Z,7.89
2023-09-26T00:19:05.259Z,7.90
2023-09-26T00:20:33.201Z,7.87
2023-09-26T00:21:34.892Z,7.85
2023-09-26T00:22:39.256Z,7.80
2023-09-26T00:23:40.977Z,7.76
2023-09-26T00:24:42.543Z,7.75
2023-09-26T00:25:48.349Z,7.68
2023-09-26T00:26:50.013Z,7.66
2023-09-26T00:27:54.624Z,7.60
2023-09-26T00:28:56.288Z,7.55
2023-09-26T00:30:00.591Z,7.55
2023-09-26T00:31:06.298Z,7.53
2023-09-26T00:32:08.123Z,7.52
2023-09-26T00:33:13.400Z,7.54
2023-09-26T00:34:19.171Z,7.54
2023-09-26T00:35:20.937Z,7.55
2023-09-26T00:36:22.718Z,7.55
2023-09-26T00:37:24.503Z,7.58
2023-09-26T00:38:26.230Z,7.52
2023-09-26T00:39:29.753Z,7.52
2023-09-26T00:40:31.346Z,7.52
2023-09-26T00:41:35.887Z,7.51
2023-09-26T00:42:37.568Z,7.51
2023-09-26T00:43:39.193Z,7.50
2023-09-26T00:44:40.737Z,7.51
2023-09-26T00:45:45.331Z,7.53
2023-09-26T00:46:49.322Z,7.51
2023-09-26T00:47:51.055Z,7.50
2023-09-26T00:48:52.835Z,7.51
2023-09-26T00:49:54.421Z,7.50
2023-09-26T00:50:56.404Z,7.52
2023-09-26T00:52:01.469Z,7.52
2023-09-26T00:53:04.871Z,7.53
2023-09-26T00:54:10.362Z,7.54
2023-09-26T00:55:14.816Z,7.56
2023-09-26T00:56:18.894Z,7.56
2023-09-26T00:57:21.353Z,7.56
2023-09-26T00:58:23.836Z,7.56
2023-09-26T00:59:30.660Z,7.56
2023-09-26T01:00:33.011Z,7.56
2023-09-26T01:01:35.779Z,7.56
2023-09-26T01:02:37.902Z,7.58
2023-09-26T01:03:39.686Z,7.61
2023-09-26T01:04:42.101Z,7.61
2023-09-26T01:05:43.800Z,7.62
2023-09-26T01:06:48.298Z,7.62
2023-09-26T01:07:50.490Z,7.62
2023-09-26T01:08:52.176Z,7.62
2023-09-26T01:09:54.107Z,7.64
2023-09-26T01:10:55.771Z,7.65
2023-09-26T01:11:57.418Z,7.65
2023-09-26T01:12:59.405Z,7.66
2023-09-26T01:14:01.100Z,7.65
2023-09-26T01:15:04.379Z,7.63
2023-09-26T01:16:19.319Z,7.62
2023-09-26T01:17:23.249Z,7.61
2023-09-26T01:18:28.121Z,7.58
2023-09-26T01:19:29.680Z,7.57
2023-09-26T01:20:33.700Z,7.59
2023-09-26T01:21:35.289Z,7.57
2023-09-26T01:22:37.082Z,7.59
2023-09-26T01:23:41.122Z,7.58
2023-09-26T01:24:42.682Z,7.58
2023-09-26T01:25:47.153Z,7.58
2023-09-26T01:26:48.756Z,7.59
2023-09-26T01:27:50.433Z,7.57
2023-09-26T01:28:55.281Z,7.59
2023-09-26T01:29:57.023Z,7.58
2023-09-26T01:30:58.740Z,7.58
2023-09-26T01:32:00.391Z,7.57
2023-09-26T01:33:03.520Z,7.55
2023-09-26T01:34:05.461Z,7.58
2023-09-26T01:35:07.458Z,7.57
2023-09-26T01:36:09.168Z,7.58
2023-09-26T01:37:10.753Z,7.58
2023-09-26T01:38:12.919Z,7.59
2023-09-26T01:39:14.821Z,7.54
2023-09-26T01:40:18.535Z,7.55
2023-09-26T01:41:21.129Z,7.55
2023-09-26T01:42:23.248Z,7.56
2023-09-26T01:43:26.201Z,7.56
2023-09-26T01:44:28.933Z,7.56
2023-09-26T01:45:30.544Z,7.53
2023-09-26T01:46:34.628Z,7.53
2023-09-26T01:47:42.695Z,7.54
2023-09-26T01:48:44.417Z,7.52
2023-09-26T01:49:46.007Z,7.52
2023-09-26T01:50:47.718Z,7.48
2023-09-26T01:51:49.294Z,7.44
2023-09-26T01:52:53.804Z,7.42
2023-09-26T01:53:55.365Z,7.40
2023-09-26T01:54:59.868Z,7.37
2023-09-26T01:56:01.798Z,7.33
2023-09-26T01:57:03.397Z,7.30
2023-09-26T01:58:05.118Z,7.26
2023-09-26T01:59:06.774Z,7.22
2023-09-26T02:01:53.288Z,7.13
2023-09-26T02:02:55.045Z,7.12
2023-09-26T02:03:56.694Z,7.11
2023-09-26T02:04:58.317Z,7.12
2023-09-26T02:06:00.173Z,7.12
2023-09-26T02:07:01.932Z,7.12
2023-09-26T02:08:05.850Z,7.08
2023-09-26T02:09:10.681Z,7.08
2023-09-26T02:10:12.395Z,7.08
2023-09-26T02:11:14.005Z,7.11
2023-09-26T02:12:16.130Z,7.12
2023-09-26T02:13:17.800Z,7.13
2023-09-26T02:14:19.472Z,7.14
2023-09-26T02:15:21.286Z,7.17
2023-09-26T02:16:22.958Z,7.15
2023-09-26T02:17:24.615Z,7.15
2023-09-26T02:18:26.240Z,7.17
2023-09-26T02:19:27.919Z,7.19
2023-09-26T02:20:29.566Z,7.18
2023-09-26T02:21:34.078Z,7.19
2023-09-26T02:22:36.526Z,7.20
2023-09-26T02:23:38.099Z,7.20
2023-09-26T02:24:39.815Z,7.19
2023-09-26T02:25:41.376Z,7.21
2023-09-26T02:26:42.910Z,7.21
2023-09-26T02:27:44.852Z,7.23
2023-09-26T02:28:48.809Z,7.23
2023-09-26T02:29:50.370Z,7.25
2023-09-26T02:30:52.014Z,7.24
2023-09-26T02:31:53.649Z,7.25
2023-09-26T02:32:55.610Z,7.25
2023-09-26T02:33:57.613Z,7.25
2023-09-26T02:35:01.676Z,7.23
2023-09-26T02:36:03.294Z,7.26
2023-09-26T02:37:04.936Z,7.20
2023-09-26T02:38:06.519Z,7.20
2023-09-26T02:39:08.100Z,7.21
2023-09-26T02:40:11.074Z,7.19
2023-09-26T02:41:16.387Z,7.21
2023-09-26T02:42:17.942Z,7.19
2023-09-26T02:43:19.712Z,7.17
2023-09-26T02:44:21.283Z,7.14
2023-09-26T02:45:23.518Z,7.12
2023-09-26T02:46:25.385Z,7.11
2023-09-26T02:47:27.164Z,7.11
2023-09-26T02:48:31.318Z,7.11
2023-09-26T02:49:35.385Z,7.08
2023-09-26T02:50:36.940Z,7.06
2023-09-26T02:51:38.489Z,7.07
2023-09-26T02:52:42.095Z,7.07
2023-09-26T02:53:43.876Z,7.07
2023-09-26T02:54:47.989Z,7.08
2023-09-26T02:55:51.764Z,7.08
2023-09-26T02:56:53.295Z,7.09
2023-09-26T02:57:54.886Z,7.01
2023-09-26T02:58:59.719Z,7.06
2023-09-26T03:00:01.407Z,7.04
2023-09-26T03:01:04.507Z,6.99
2023-09-26T03:02:07.344Z,7.00
2023-09-26T03:03:09.044Z,7.01
2023-09-26T03:04:10.779Z,7.02
2023-09-26T03:05:12.716Z,7.04
2023-09-26T03:06:17.618Z,7.04
2023-09-26T03:07:19.319Z,7.04
2023-09-26T03:08:21.017Z,7.06
2023-09-26T03:09:25.391Z,7.06
2023-09-26T03:10:27.006Z,7.05
2023-09-26T03:11:28.734Z,7.05
2023-09-26T03:12:30.253Z,7.07
2023-09-26T03:13:34.544Z,7.04
2023-09-26T03:14:38.607Z,7.06
2023-09-26T03:15:42.312Z,7.04
2023-09-26T03:16:44.629Z,7.01
2023-09-26T03:17:49.365Z,6.99
2023-09-26T03:18:56.364Z,6.98
2023-09-26T03:19:58.053Z,6.98
2023-09-26T03:21:02.203Z,6.99
2023-09-26T03:22:04.487Z,6.99
2023-09-26T03:23:08.499Z,7.01
2023-09-26T03:24:10.918Z,6.99
2023-09-26T03:25:13.051Z,7.00
2023-09-26T03:26:15.849Z,6.99
2023-09-26T03:27:17.426Z,6.98
2023-09-26T03:28:19.278Z,6.98
2023-09-26T03:29:23.060Z,6.94
2023-09-26T03:30:28.489Z,6.92
2023-09-26T03:31:30.167Z,6.88
2023-09-26T03:32:31.887Z,6.81
2023-09-26T03:33:36.655Z,6.78
2023-09-26T03:34:38.218Z,6.75
2023-09-26T03:35:39.821Z,6.73
2023-09-26T03:36:41.478Z,6.71
2023-09-26T03:37:43.039Z,6.71
2023-09-26T03:38:44.605Z,6.72
2023-09-26T03:39:47.861Z,6.70
2023-09-26T03:41:01.570Z,6.72
2023-09-26T03:42:03.140Z,6.72
2023-09-26T03:43:04.891Z,6.72
2023-09-26T03:44:06.990Z,6.71
2023-09-26T03:45:09.536Z,6.71
2023-09-26T03:46:11.316Z,6.73
2023-09-26T03:47:12.966Z,6.75
2023-09-26T03:48:14.631Z,6.75
2023-09-26T03:49:16.400Z,6.78
2023-09-26T03:50:20.550Z,6.79
2023-09-26T03:51:22.109Z,6.78
2023-09-26T03:52:24.359Z,6.78
2023-09-26T03:53:26.077Z,6.77
2023-09-26T03:54:28.969Z,6.77
2023-09-26T03:55:30.687Z,6.77
2023-09-26T03:56:32.254Z,6.77
2023-09-26T03:57:34.162Z,6.77
2023-09-26T03:58:36.137Z,6.77
2023-09-26T03:59:37.775Z,6.77
2023-09-26T04:00:39.349Z,6.77
2023-09-26T04:01:41.540Z,6.75
2023-09-26T04:02:44.122Z,6.74
2023-09-26T04:03:50.256Z,6.72
2023-09-26T04:04:52.384Z,6.69
2023-09-26T04:05:57.454Z,6.67
2023-09-26T04:06:59.460Z,6.62
2023-09-26T04:08:04.243Z,6.58
2023-09-26T04:09:08.326Z,6.57
2023-09-26T04:10:10.197Z,6.53
2023-09-26T04:11:15.588Z,6.51
2023-09-26T04:12:21.883Z,6.49
2023-09-26T04:13:23.454Z,6.47
2023-09-26T04:14:26.179Z,6.45
2023-09-26T04:15:27.723Z,6.43
2023-09-26T04:16:29.298Z,6.42
2023-09-26T04:17:31.054Z,6.38
2023-09-26T04:18:32.875Z,6.34
2023-09-26T04:19:34.486Z,6.24
2023-09-26T04:20:38.013Z,6.23
2023-09-26T04:21:40.097Z,6.22
2023-09-26T04:22:41.683Z,6.24
2023-09-26T04:23:46.238Z,6.25
2023-09-26T04:24:47.756Z,6.24
2023-09-26T04:25:49.307Z,6.26
2023-09-26T04:26:50.981Z,6.25
2023-09-26T04:27:53.264Z,6.26
2023-09-26T04:28:54.877Z,6.26
2023-09-26T04:29:56.570Z,6.22
2023-09-26T04:31:30.738Z,6.26
2023-09-26T04:32:33.503Z,6.32
2023-09-26T04:33:35.256Z,6.34
2023-09-26T04:34:36.834Z,6.24
2023-09-26T04:35:40.920Z,6.31
2023-09-26T04:36:44.886Z,6.30
2023-09-26T04:37:49.236Z,6.29
2023-09-26T04:38:51.120Z,6.30
2023-09-26T04:39:52.709Z,6.16
2023-09-26T04:40:56.909Z,6.27
2023-09-26T04:41:58.638Z,6.28
2023-09-26T04:43:06.645Z,6.16
2023-09-26T04:44:10.680Z,6.24
2023-09-26T04:45:12.428Z,6.24
2023-09-26T04:46:17.655Z,6.24
2023-09-26T04:47:19.449Z,6.20
2023-09-26T04:48:26.134Z,6.19
2023-09-26T04:49:27.950Z,6.20
2023-09-26T04:50:32.718Z,6.19
2023-09-26T04:51:34.342Z,5.94
2023-09-26T04:52:37.222Z,6.07
2023-09-26T04:53:41.218Z,6.13
2023-09-26T04:54:43.324Z,6.14
2023-09-26T04:55:49.859Z,6.14
2023-09-26T04:56:51.602Z,6.14
2023-09-26T04:57:54.184Z,5.96
2023-09-26T04:59:00.627Z,5.93
2023-09-26T05:00:07.014Z,6.08
2023-09-26T05:01:17.774Z,6.05
2023-09-26T05:02:19.491Z,6.09
2023-09-26T05:03:21.154Z,5.93
2023-09-26T05:04:23.257Z,6.04
2023-09-26T05:05:29.360Z,6.07
2023-09-26T05:06:31.242Z,6.08
2023-09-26T05:07:32.990Z,6.09
2023-09-26T05:08:34.597Z,5.97
2023-09-26T05:09:38.149Z,6.08
2023-09-26T05:10:40.099Z,6.13
2023-09-26T05:11:41.808Z,6.16
2023-09-26T05:12:43.690Z,6.01
2023-09-26T05:13:45.800Z,6.11
2023-09-26T05:14:49.673Z,6.16
2023-09-26T05:15:52.212Z,6.18
2023-09-26T05:16:54.210Z,6.20
2023-09-26T05:17:56.078Z,6.09
2023-09-26T05:18:57.817Z,6.19
2023-09-26T05:20:01.786Z,6.23
2023-09-26T05:21:07.079Z,6.10
2023-09-26T05:22:09.202Z,6.20
2023-09-26T05:23:10.983Z,6.15
2023-09-26T05:24:12.877Z,6.17
2023-09-26T05:25:15.085Z,6.20
2023-09-26T05:26:17.073Z,6.21
2023-09-26T05:27:18.709Z,6.24
2023-09-26T05:28:20.356Z,6.13
2023-09-26T05:29:22.257Z,6.23
2023-09-26T05:30:23.958Z,6.27
2023-09-26T05:31:29.453Z,6.16
2023-09-26T05:32:31.378Z,6.28
2023-09-26T05:33:36.324Z,6.19
2023-09-26T05:34:38.064Z,6.26
2023-09-26T05:35:40.324Z,6.27
2023-09-26T05:36:42.029Z,6.27
2023-09-26T05:37:43.618Z,6.13
2023-09-26T05:38:45.418Z,6.25
2023-09-26T05:39:46.993Z,6.12
2023-09-26T05:40:50.795Z,6.23
2023-09-26T05:41:53.085Z,6.26
2023-09-26T05:42:54.786Z,6.25
2023-09-26T05:43:56.427Z,6.10
2023-09-26T05:45:00.864Z,6.20
2023-09-26T05:46:05.275Z,6.23
2023-09-26T05:47:07.348Z,6.22
2023-09-26T05:48:11.445Z,6.24
2023-09-26T05:49:15.575Z,6.26
2023-09-26T05:50:17.380Z,6.28
2023-09-26T05:51:18.966Z,6.19
2023-09-26T05:52:23.598Z,6.29
2023-09-26T05:53:25.330Z,6.36
2023-09-26T05:54:32.062Z,6.25
2023-09-26T05:55:34.067Z,6.35
2023-09-26T05:56:38.176Z,6.40
2023-09-26T05:57:42.099Z,6.42
2023-09-26T05:58:48.084Z,6.34
2023-09-26T05:59:51.917Z,6.46
2023-09-26T06:00:54.824Z,6.53
2023-09-26T06:01:56.726Z,6.55
2023-09-26T06:03:00.843Z,6.59
2023-09-26T06:04:02.732Z,6.64
2023-09-26T06:05:04.791Z,6.55
2023-09-26T06:06:08.931Z,6.67
2023-09-26T06:07:11.050Z,6.71
2023-09-26T06:08:17.058Z,6.71
2023-09-26T06:09:19.073Z,6.71
2023-09-26T06:10:23.100Z,6.71
2023-09-26T06:11:27.230Z,6.72
2023-09-26T06:12:31.575Z,6.70
2023-09-26T06:13:33.443Z,6.73
2023-09-26T06:14:35.244Z,6.74
2023-09-26T06:15:37.017Z,6.78
2023-09-26T06:16:38.789Z,6.67
2023-09-26T06:17:41.525Z,6.78
2023-09-26T06:18:46.557Z,6.85
2023-09-26T06:19:48.601Z,6.90
2023-09-26T06:20:50.386Z,6.93
2023-09-26T06:21:52.009Z,6.81
2023-09-26T06:22:54.142Z,6.92
2023-09-26T06:23:58.354Z,6.97
2023-09-26T06:25:01.911Z,6.84
2023-09-26T06:26:04.317Z,6.94
2023-09-26T06:27:06.066Z,6.99
2023-09-26T06:28:08.298Z,6.90
2023-09-26T06:29:10.185Z,7.02
2023-09-26T06:30:12.708Z,7.06
2023-09-26T06:31:15.529Z,7.10
2023-09-26T06:32:20.152Z,7.11
2023-09-26T06:33:21.939Z,7.15
2023-09-26T06:34:23.782Z,7.17
2023-09-26T06:35:25.630Z,7.16
2023-09-26T06:36:31.580Z,7.06
2023-09-26T06:37:33.444Z,7.21
2023-09-26T06:38:35.298Z,7.26
2023-09-26T06:39:37.511Z,7.16
2023-09-26T06:40:40.485Z,7.28
2023-09-26T06:41:46.739Z,7.32
2023-09-26T06:42:48.530Z,7.37
2023-09-26T06:43:50.511Z,7.41
2023-09-26T06:44:54.740Z,7.43
2023-09-26T06:45:56.504Z,7.46
2023-09-26T06:47:00.616Z,7.51
2023-09-26T06:48:08.003Z,7.52
2023-09-26T06:49:11.531Z,7.54
2023-09-26T06:50:13.721Z,7.59
2023-09-26T06:51:15.484Z,7.66
2023-09-26T06:52:17.228Z,7.69
2023-09-26T06:53:19.014Z,7.71
2023-09-26T06:54:20.818Z,7.75
2023-09-26T06:55:22.600Z,7.79
2023-09-26T06:56:26.594Z,7.81
2023-09-26T06:57:28.384Z,7.72
2023-09-26T06:58:30.768Z,7.84
2023-09-26T06:59:32.553Z,7.88
2023-09-26T07:00:35.375Z,7.79
2023-09-26T07:01:37.341Z,7.90
2023-09-26T07:02:43.892Z,7.95
2023-09-26T07:03:50.841Z,7.99
2023-09-26T07:04:56.041Z,8.03
2023-09-26T07:06:08.339Z,8.07
2023-09-26T07:07:10.083Z,7.94
2023-09-26T07:08:15.379Z,8.09
2023-09-26T07:09:17.913Z,8.16
2023-09-26T07:10:19.703Z,8.18
2023-09-26T07:11:24.088Z,8.11
2023-09-26T07:12:27.344Z,8.25
2023-09-26T07:13:47.567Z,8.31
2023-09-26T07:14:50.575Z,8.38
2023-09-26T07:16:00.748Z,8.38
2023-09-26T07:17:03.377Z,8.44
2023-09-26T07:18:07.877Z,8.49
2023-09-26T07:19:09.662Z,8.49
2023-09-26T07:20:17.283Z,8.38
2023-09-26T07:21:19.056Z,8.51
2023-09-26T07:22:20.812Z,8.44
2023-09-26T07:23:24.984Z,8.57
2023-09-26T07:24:38.476Z,8.62
2023-09-26T07:25:44.907Z,8.68
2023-09-26T07:26:50.869Z,8.68
2023-09-26T07:27:52.720Z,8.71
2023-09-26T07:28:54.605Z,8.59
2023-09-26T07:29:59.657Z,8.74
2023-09-26T07:31:05.719Z,8.67
2023-09-26T07:32:07.492Z,8.81
2023-09-26T07:33:09.147Z,8.74
2023-09-26T07:34:15.011Z,8.88
2023-09-26T07:35:19.438Z,8.95
2023-09-26T07:36:21.229Z,8.98
2023-09-26T07:37:22.917Z,8.89
2023-09-26T07:38:24.743Z,8.99
2023-09-26T07:39:26.617Z,9.07
2023-09-26T07:40:33.165Z,8.97
2023-09-26T07:41:35.467Z,9.11
2023-09-26T07:42:38.019Z,9.18
2023-09-26T07:43:40.920Z,9.18
2023-09-26T07:44:42.902Z,9.27
2023-09-26T07:45:46.825Z,9.29
2023-09-26T07:46:50.847Z,9.36
2023-09-26T07:47:52.625Z,9.41
2023-09-26T07:48:54.586Z,9.36
2023-09-26T07:49:58.782Z,9.44
2023-09-26T07:51:00.591Z,9.48
2023-09-26T07:52:02.515Z,9.55
2023-09-26T07:53:04.436Z,9.59
2023-09-26T07:54:09.369Z,9.67
2023-09-26T07:55:13.799Z,9.73
2023-09-26T07:56:15.642Z,9.82
2023-09-26T07:57:22.020Z,9.86
2023-09-26T07:58:23.966Z,9.92
2023-09-26T07:59:28.095Z,9.99
2023-09-26T08:00:29.798Z,10.01
2023-09-26T08:01:34.341Z,10.11
2023-09-26T08:02:36.108Z,10.09
2023-09-26T08:03:40.739Z,10.04
2023-09-26T08:04:42.723Z,10.20
2023-09-26T08:05:47.035Z,10.27
2023-09-26T08:06:51.598Z,10.25
2023-09-26T08:07:56.172Z,10.33
2023-09-26T08:08:58.830Z,10.37
2023-09-26T08:10:03.559Z,10.39
2023-09-26T08:11:13.839Z,10.42
2023-09-26T08:12:15.543Z,10.49
2023-09-26T08:13:17.157Z,10.41
2023-09-26T08:14:21.063Z,10.53
2023-09-26T08:15:30.160Z,10.62
2023-09-26T08:16:31.918Z,10.65
2023-09-26T08:17:33.808Z,10.73
2023-09-26T08:18:35.572Z,10.64
2023-09-26T08:19:37.709Z,10.80
2023-09-26T08:20:39.541Z,10.83
2023-09-26T08:21:45.545Z,10.90
2023-09-26T08:22:51.982Z,10.93
2023-09-26T08:23:58.766Z,10.94
2023-09-26T08:25:02.615Z,10.94
2023-09-26T08:26:04.771Z,10.93
2023-09-26T08:27:07.286Z,11.06
2023-09-26T08:28:11.691Z,11.14
2023-09-26T08:29:13.416Z,11.19
2023-09-26T08:30:15.095Z,11.11
2023-09-26T08:31:19.030Z,11.19
2023-09-26T08:32:21.116Z,11.26
2023-09-26T08:33:28.800Z,11.28
2023-09-26T08:34:30.492Z,11.13
2023-09-26T08:35:32.380Z,11.04
2023-09-26T08:36:34.333Z,11.22
2023-09-26T08:37:39.037Z,11.30
2023-09-26T08:38:44.701Z,11.36
2023-09-26T08:39:48.132Z,11.42
2023-09-26T08:40:53.280Z,11.48
2023-09-26T08:42:01.139Z,11.53
2023-09-26T08:43:06.150Z,11.56
2023-09-26T08:44:08.165Z,11.63
2023-09-26T08:45:15.280Z,11.69
2023-09-26T08:46:22.500Z,11.72
2023-09-26T08:47:28.477Z,11.79
2023-09-26T08:48:33.617Z,11.82
2023-09-26T08:49:42.520Z,11.87
2023-09-26T08:50:46.659Z,11.91
2023-09-26T08:51:48.483Z,11.89
2023-09-26T08:52:53.419Z,11.94
2023-09-26T08:53:55.283Z,12.01
2023-09-26T08:54:57.123Z,12.04
2023-09-26T08:55:59.627Z,11.97
2023-09-26T08:57:02.725Z,12.04
2023-09-26T08:58:07.372Z,12.08
2023-09-26T08:59:09.996Z,12.12
2023-09-26T09:00:14.652Z,12.13
2023-09-26T09:01:18.330Z,12.24
2023-09-26T09:02:20.244Z,12.25
2023-09-26T09:03:24.602Z,12.30
2023-09-26T09:04:26.444Z,12.33
2023-09-26T09:05:30.722Z,12.36
2023-09-26T09:06:32.521Z,12.43
2023-09-26T09:07:34.397Z,12.37
2023-09-26T09:08:38.459Z,12.50
2023-09-26T09:10:06.320Z,12.53
2023-09-26T09:11:08.194Z,12.63
2023-09-26T09:12:27.685Z,12.54
2023-09-26T09:13:43.643Z,12.70
2023-09-26T09:14:51.097Z,12.73
2023-09-26T09:15:53.102Z,12.71
2023-09-26T09:17:00.516Z,12.76
2023-09-26T09:18:02.439Z,12.80
2023-09-26T09:19:04.628Z,12.71
2023-09-26T09:20:06.950Z,12.84
2023-09-26T09:21:34.359Z,12.84
2023-09-26T09:22:36.233Z,12.92
2023-09-26T09:23:47.832Z,12.92
2023-09-26T09:24:57.500Z,12.99
2023-09-26T09:26:11.795Z,12.97
2023-09-26T09:27:17.869Z,13.04
2023-09-26T09:28:26.121Z,13.13
2023-09-26T09:29:27.806Z,13.17
2023-09-26T09:30:37.106Z,13.09
2023-09-26T09:31:38.944Z,13.24
2023-09-26T09:32:42.225Z,13.28
2023-09-26T09:33:48.194Z,13.31
2023-09-26T09:34:50.531Z,13.40
2023-09-26T09:35:52.504Z,13.41
2023-09-26T09:36:57.721Z,13.46
2023-09-26T09:37:59.873Z,13.50
2023-09-26T09:39:03.742Z,13.56
2023-09-26T09:40:09.550Z,13.49
2023-09-26T09:41:11.545Z,13.59
2023-09-26T09:42:17.987Z,13.63
2023-09-26T09:43:21.756Z,13.70
2023-09-26T09:44:23.645Z,13.75
2023-09-26T09:45:32.590Z,13.79
2023-09-26T09:46:40.085Z,13.83
2023-09-26T09:47:46.142Z,13.86
2023-09-26T09:48:52.209Z,13.97
2023-09-26T09:50:01.054Z,13.94
2023-09-26T09:51:10.309Z,14.04
2023-09-26T09:52:12.925Z,14.08
2023-09-26T09:53:19.066Z,14.14
2023-09-26T09:54:22.113Z,14.18
2023-09-26T09:55:31.012Z,14.19
2023-09-26T09:56:35.761Z,14.24
2023-09-26T09:57:46.907Z,14.24
2023-09-26T09:58:58.403Z,14.26
2023-09-26T10:00:00.751Z,14.30
2023-09-26T10:01:08.458Z,14.23
2023-09-26T10:02:13.626Z,14.30
2023-09-26T10:03:17.001Z,14.38
2023-09-26T10:04:20.361Z,14.42
2023-09-26T10:05:25.602Z,14.42
2023-09-26T10:06:28.362Z,14.52
2023-09-26T10:07:34.786Z,14.56
2023-09-26T10:08:39.485Z,14.62
2023-09-26T10:09:42.092Z,14.63
2023-09-26T10:10:45.041Z,14.68
2023-09-26T10:11:48.795Z,14.72
2023-09-26T10:13:06.287Z,14.76
2023-09-26T10:14:23.195Z,14.75
2023-09-26T10:15:31.418Z,14.87
2023-09-26T10:16:33.657Z,14.89
2023-09-26T10:17:37.180Z,14.94
2023-09-26T10:18:43.192Z,14.91
2023-09-26T10:19:57.849Z,14.93
2023-09-26T10:21:22.460Z,14.89
2023-09-26T10:22:34.440Z,14.99
2023-09-26T10:23:43.618Z,15.08
2023-09-26T10:24:48.142Z,15.11
2023-09-26T10:25:50.021Z,15.17
2023-09-26T10:26:52.311Z,15.07
2023-09-26T10:29:07.179Z,15.23
2023-09-26T10:30:15.487Z,15.27
2023-09-26T10:31:19.835Z,15.31
2023-09-26T10:32:39.934Z,15.32
2023-09-26T10:33:54.539Z,15.29
2023-09-26T10:35:00.579Z,15.36
2023-09-26T10:36:03.853Z,15.40
2023-09-26T10:37:09.444Z,15.40
2023-09-26T10:38:20.069Z,15.46
2023-09-26T10:39:35.449Z,15.51
2023-09-26T10:40:37.228Z,15.56
2023-09-26T10:42:07.130Z,15.64
2023-09-26T10:44:11.138Z,15.74
2023-09-26T10:45:18.938Z,15.79
2023-09-26T10:46:20.782Z,15.83
2023-09-26T10:47:24.038Z,15.85
2023-09-26T10:48:28.882Z,15.78
2023-09-26T10:49:30.721Z,15.80
2023-09-26T10:50:33.909Z,15.84
2023-09-26T10:51:35.870Z,15.90
2023-09-26T10:52:42.826Z,15.83
2023-09-26T10:53:48.655Z,15.99
2023-09-26T10:54:52.872Z,16.03
2023-09-26T10:55:55.374Z,16.09
2023-09-26T10:57:00.798Z,16.11
2023-09-26T10:58:02.491Z,16.10
2023-09-26T10:59:04.154Z,15.95
2023-09-26T11:00:14.126Z,16.12
2023-09-26T11:01:18.265Z,16.21
2023-09-26T11:02:24.590Z,16.22
2023-09-26T11:03:26.820Z,16.26
2023-09-26T11:04:33.157Z,16.27
2023-09-26T11:05:37.349Z,16.28
2023-09-26T11:06:40.751Z,16.39
2023-09-26T11:09:08.850Z,16.47
2023-09-26T11:10:15.648Z,16.54
2023-09-26T11:11:20.433Z,16.60
2023-09-26T11:12:23.287Z,16.65
2023-09-26T11:13:26.032Z,16.74
2023-09-26T11:14:28.271Z,16.80
2023-09-26T11:15:32.332Z,16.85
2023-09-26T11:16:34.134Z,16.87
2023-09-26T11:17:39.257Z,16.86
2023-09-26T11:18:44.846Z,16.91
2023-09-26T11:19:46.843Z,16.97
2023-09-26T11:21:02.498Z,16.96
2023-09-26T11:22:11.467Z,16.97
2023-09-26T11:23:33.179Z,17.06
2023-09-26T11:24:34.925Z,17.03
2023-09-26T11:25:37.834Z,16.99
2023-09-26T11:26:39.758Z,17.14
2023-09-26T11:27:43.483Z,17.16
2023-09-26T11:28:47.644Z,17.20
2023-09-26T11:29:49.404Z,17.20
2023-09-26T11:30:50.973Z,17.13
2023-09-26T11:31:54.585Z,17.23
2023-09-26T11:32:56.936Z,17.28
2023-09-26T11:33:58.933Z,17.33
2023-09-26T11:35:00.705Z,17.38
2023-09-26T11:36:05.150Z,17.42
2023-09-26T11:37:08.215Z,17.42
2023-09-26T11:38:10.194Z,17.45
2023-09-26T11:39:18.034Z,17.51
2023-09-26T11:40:24.105Z,17.54
2023-09-26T11:41:35.651Z,17.56
2023-09-26T11:42:47.442Z,17.61
2023-09-26T11:43:49.303Z,17.65
2023-09-26T11:44:55.555Z,17.63
2023-09-26T11:46:06.123Z,17.66
2023-09-26T11:47:10.116Z,17.71
2023-09-26T11:48:11.934Z,17.78
2023-09-26T11:49:15.188Z,17.81
2023-09-26T11:50:17.273Z,17.81
2023-09-26T11:51:19.639Z,17.88
2023-09-26T11:52:21.614Z,17.88
2023-09-26T11:53:26.946Z,17.91
2023-09-26T11:54:28.787Z,17.93
2023-09-26T11:55:31.566Z,17.96
2023-09-26T11:56:34.333Z,18.01
2023-09-26T11:57:40.580Z,18.02
2023-09-26T11:58:42.314Z,18.08
2023-09-26T11:59:43.990Z,18.00
2023-09-26T12:00:45.713Z,18.10
2023-09-26T12:01:47.708Z,18.17
2023-09-26T12:02:51.145Z,18.21
2023-09-26T12:03:53.091Z,18.26
2023-09-26T12:04:54.899Z,18.28
2023-09-26T12:05:56.592Z,18.30
2023-09-26T12:06:58.255Z,18.20
2023-09-26T12:08:00.143Z,18.34
2023-09-26T12:09:04.194Z,18.39
2023-09-26T12:10:07.742Z,18.38
2023-09-26T12:11:09.626Z,18.42
2023-09-26T12:12:11.674Z,18.35
2023-09-26T12:13:13.484Z,18.44
2023-09-26T12:14:18.659Z,18.47
2023-09-26T12:15:25.883Z,18.46
2023-09-26T12:16:32.704Z,18.50
2023-09-26T12:17:37.084Z,18.54
2023-09-26T12:18:38.912Z,18.58
2023-09-26T12:19:40.606Z,18.55
2023-09-26T12:20:42.423Z,18.66
2023-09-26T12:21:46.281Z,18.68
2023-09-26T12:22:52.496Z,18.73
2023-09-26T12:23:55.543Z,18.79
2023-09-26T12:24:59.806Z,18.75
2023-09-26T12:26:01.518Z,18.74
2023-09-26T12:27:05.115Z,18.74
2023-09-26T12:28:06.943Z,18.80
2023-09-26T12:29:11.587Z,18.83
2023-09-26T12:30:14.227Z,18.89
2023-09-26T12:31:18.396Z,18.92
2023-09-26T12:32:22.475Z,18.92
2023-09-26T12:33:24.439Z,19.00
2023-09-26T12:34:26.071Z,18.93
2023-09-26T12:35:27.826Z,19.02
2023-09-26T12:36:32.903Z,19.07
2023-09-26T12:37:35.189Z,19.12
2023-09-26T12:38:37.094Z,19.13
2023-09-26T12:39:38.905Z,19.13
2023-09-26T12:40:40.580Z,19.06
2023-09-26T12:41:42.667Z,19.17
2023-09-26T12:42:44.622Z,19.20
2023-09-26T12:43:46.440Z,19.19
2023-09-26T12:44:48.061Z,19.16
2023-09-26T12:45:49.827Z,19.24
2023-09-26T12:46:53.950Z,19.15
2023-09-26T12:47:55.763Z,19.32
2023-09-26T12:48:57.716Z,19.38
2023-09-26T12:50:02.159Z,19.43
2023-09-26T12:51:04.485Z,19.43
2023-09-26T12:52:08.659Z,19.42
2023-09-26T12:53:10.449Z,19.49
2023-09-26T12:54:12.288Z,19.51
2023-09-26T12:55:14.881Z,19.50
2023-09-26T12:56:18.596Z,19.48
2023-09-26T12:57:22.539Z,19.42
2023-09-26T12:58:30.338Z,19.51
2023-09-26T12:59:35.896Z,19.49
2023-09-26T13:00:37.732Z,19.56
2023-09-26T13:01:39.574Z,19.58
2023-09-26T13:02:42.140Z,19.59
2023-09-26T13:03:46.428Z,19.60
2023-09-26T13:04:48.430Z,19.63
2023-09-26T13:05:50.152Z,19.65
2023-09-26T13:06:51.797Z,19.59
2023-09-26T13:07:53.586Z,19.72
2023-09-26T13:08:55.274Z,19.76
2023-09-26T13:09:59.430Z,19.80
2023-09-26T13:11:01.258Z,19.74
2023-09-26T13:12:03.019Z,19.77
2023-09-26T13:13:04.625Z,19.67
2023-09-26T13:14:07.001Z,19.76
2023-09-26T13:15:11.930Z,19.86
2023-09-26T13:16:14.693Z,19.89
2023-09-26T13:17:19.683Z,19.86
2023-09-26T13:18:21.525Z,19.95
2023-09-26T13:19:26.225Z,19.98
2023-09-26T13:20:28.010Z,20.00
2023-09-26T13:21:32.077Z,20.03
2023-09-26T13:22:33.606Z,19.93
2023-09-26T13:23:35.415Z,20.01
2023-09-26T13:24:44.861Z,20.05
2023-09-26T13:25:46.629Z,20.08
2023-09-26T13:26:49.229Z,20.12
2023-09-26T13:27:50.911Z,20.12
2023-09-26T13:28:52.504Z,20.09
2023-09-26T13:29:54.905Z,20.20
2023-09-26T13:30:58.648Z,20.21
2023-09-26T13:32:01.005Z,20.23
2023-09-26T13:33:02.976Z,20.16
2023-09-26T13:34:09.667Z,20.20
2023-09-26T13:35:11.416Z,20.19
2023-09-26T13:36:15.692Z,20.22
2023-09-26T13:37:17.506Z,20.27
2023-09-26T13:38:19.272Z,20.23
2023-09-26T13:39:23.679Z,20.21
2023-09-26T13:40:25.773Z,20.25
2023-09-26T13:41:30.307Z,20.28
2023-09-26T13:42:32.052Z,20.29
2023-09-26T13:43:36.588Z,20.27
2023-09-26T13:44:43.072Z,20.35
2023-09-26T13:45:44.895Z,20.35
2023-09-26T13:46:46.668Z,20.36
2023-09-26T13:47:48.520Z,20.37
2023-09-26T13:48:50.411Z,20.41
2023-09-26T13:49:51.964Z,20.27
2023-09-26T13:50:53.636Z,20.35
2023-09-26T13:51:59.211Z,20.27
2023-09-26T13:53:01.132Z,20.32
2023-09-26T13:54:04.135Z,20.41
2023-09-26T13:55:07.657Z,20.41
2023-09-26T13:56:11.613Z,20.42
2023-09-26T13:57:15.182Z,20.42
2023-09-26T13:58:16.988Z,20.45
2023-09-26T13:59:18.758Z,20.37
2023-09-26T14:01:53.749Z,20.44
2023-09-26T14:02:56.329Z,20.46